Alton, New York
Current Conditions -  °F | °C
As of 7:54 AM on Monday 24 Nov 2014 (Local Time) from KFZY Reporting Station
Overcast Overcast  
Wind Chill: 54°   Ceiling: 9500
Heat Index: 54°   Visibility: 8mi
Dew Point: 49°   Wind: 7mph
Humidity: 83%   Direction: 150°SSE
Pressure: 29.4"   Gusts: NA
Location:  43.21°N, 76.98°W
Report Text: KFZY 241254Z AUTO 15006KT 8SM FEW050 FEW070 OVC095 12/09 A2940 RMK AO2 SLP958 T01220094
Loading
Personal Weather Stations






























Interactive Weather Map New forecast layout! Learn more

10-Day Weather Forecast

Advertisements
Track Severe Weather on mobile